West Carrollton, Ohio
Current Conditions -  °F | °C
As of 1:53 PM on Friday 21 Nov 2014 (Local Time) from KMGY Reporting Station
Clear Clear  
Wind Chill: 29°   Ceiling: Unl
Heat Index: 29°   Visibility: 10mi
Dew Point: 10°   Wind: 3mph
Humidity: 45%   Direction: 130°SE
Pressure: 30.47"   Gusts: NA
Location:  39.664°N, 84.2415°W
Report Text: KMGY 211853Z AUTO 13003KT 10SM CLR M02/M12 A3047 RMK AO2 SLP329 T10171122
Loading
Personal Weather Stations






























Interactive Weather Map New forecast layout! Learn more

10-Day Weather Forecast

Advertisements
Track Severe Weather on mobile